sensor_id;sensor_type;location;lat;lon;timestamp;pressure;altitude;pressure_sealevel;temperature;humidity
45071;BME280;30836;48.906;9.140;2022-10-01T00:00:04;983.26;;;16.58;49.03
45071;BME280;30836;48.906;9.140;2022-10-01T00:01:05;983.26;;;16.56;49.13
45071;BME280;30836;48.906;9.140;2022-10-01T00:02:07;983.26;;;16.57;48.89
45071;BME280;30836;48.906;9.140;2022-10-01T00:03:08;983.32;;;16.62;48.65
45071;BME280;30836;48.906;9.140;2022-10-01T00:04:08;983.30;;;16.69;48.53
45071;BME280;30836;48.906;9.140;2022-10-01T00:05:09;983.30;;;16.75;48.44
45071;BME280;30836;48.906;9.140;2022-10-01T00:06:10;983.28;;;16.81;48.23
45071;BME280;30836;48.906;9.140;2022-10-01T00:07:14;983.30;;;16.86;48.13
45071;BME280;30836;48.906;9.140;2022-10-01T00:08:15;983.30;;;16.90;48.17
45071;BME280;30836;48.906;9.140;2022-10-01T00:09:16;983.28;;;16.92;48.07
45071;BME280;30836;48.906;9.140;2022-10-01T00:10:16;983.28;;;16.94;47.88
45071;BME280;30836;48.906;9.140;2022-10-01T00:11:21;983.26;;;16.94;47.98
45071;BME280;30836;48.906;9.140;2022-10-01T00:12:23;983.24;;;16.94;47.98
45071;BME280;30836;48.906;9.140;2022-10-01T00:13:23;983.24;;;16.95;47.91
45071;BME280;30836;48.906;9.140;2022-10-01T00:14:24;983.24;;;16.98;47.84
45071;BME280;30836;48.906;9.140;2022-10-01T00:15:25;983.22;;;17.01;47.76
45071;BME280;30836;48.906;9.140;2022-10-01T00:16:26;983.26;;;17.06;47.59
45071;BME280;30836;48.906;9.140;2022-10-01T00:16:36;983.30;;;17.12;47.55
45071;BME280;30836;48.906;9.140;2022-10-01T00:17:37;983.26;;;17.14;47.21
45071;BME280;30836;48.906;9.140;2022-10-01T00:18:38;983.26;;;17.18;47.10
45071;BME280;30836;48.906;9.140;2022-10-01T00:19:41;983.26;;;17.21;46.86
45071;BME280;30836;48.906;9.140;2022-10-01T00:20:41;983.22;;;17.23;46.82
45071;BME280;30836;48.906;9.140;2022-10-01T00:21:42;983.22;;;17.23;46.86
45071;BME280;30836;48.906;9.140;2022-10-01T00:22:42;983.22;;;17.23;46.82
45071;BME280;30836;48.906;9.140;2022-10-01T00:23:43;983.22;;;17.24;46.79
45071;BME280;30836;48.906;9.140;2022-10-01T00:23:53;983.20;;;17.24;46.78
45071;BME280;30836;48.906;9.140;2022-10-01T00:24:58;983.20;;;17.26;46.61
45071;BME280;30836;48.906;9.140;2022-10-01T00:27:09;983.18;;;17.29;46.54
45071;BME280;30836;48.906;9.140;2022-10-01T00:28:09;983.18;;;17.25;46.58
45071;BME280;30836;48.906;9.140;2022-10-01T00:29:11;983.20;;;17.20;46.71
45071;BME280;30836;48.906;9.140;2022-10-01T00:30:12;983.16;;;17.17;46.79
45071;BME280;30836;48.906;9.140;2022-10-01T00:31:13;983.16;;;17.15;46.93
45071;BME280;30836;48.906;9.140;2022-10-01T00:32:14;983.16;;;17.12;47.00
45071;BME280;30836;48.906;9.140;2022-10-01T00:33:15;983.14;;;17.10;47.03
45071;BME280;30836;48.906;9.140;2022-10-01T00:34:15;983.14;;;17.08;47.04
45071;BME280;30836;48.906;9.140;2022-10-01T00:35:16;983.08;;;17.04;47.19
45071;BME280;30836;48.906;9.140;2022-10-01T00:36:16;983.12;;;16.98;47.49
45071;BME280;30836;48.906;9.140;2022-10-01T00:37:16;983.12;;;16.94;47.39
45071;BME280;30836;48.906;9.140;2022-10-01T00:38:17;983.12;;;16.91;47.54
45071;BME280;30836;48.906;9.140;2022-10-01T00:39:17;983.14;;;16.88;47.53
45071;BME280;30836;48.906;9.140;2022-10-01T00:40:18;983.14;;;16.85;47.60
45071;BME280;30836;48.906;9.140;2022-10-01T00:41:20;983.14;;;16.82;47.65
45071;BME280;30836;48.906;9.140;2022-10-01T00:42:22;983.16;;;16.80;47.68
45071;BME280;30836;48.906;9.140;2022-10-01T00:43:25;983.12;;;16.82;47.58
45071;BME280;30836;48.906;9.140;2022-10-01T00:45:30;983.16;;;16.90;47.47
45071;BME280;30836;48.906;9.140;2022-10-01T00:47:40;983.20;;;16.86;47.55
45071;BME280;30836;48.906;9.140;2022-10-01T00:49:57;983.26;;;16.82;47.63
45071;BME280;30836;48.906;9.140;2022-10-01T00:51:03;983.30;;;16.79;47.70
45071;BME280;30836;48.906;9.140;2022-10-01T00:52:05;983.30;;;16.78;47.79
45071;BME280;30836;48.906;9.140;2022-10-01T00:53:09;983.38;;;16.77;47.81
45071;BME280;30836;48.906;9.140;2022-10-01T00:54:12;983.38;;;16.80;47.74
45071;BME280;30836;48.906;9.140;2022-10-01T00:56:24;983.42;;;16.85;47.56
45071;BME280;30836;48.906;9.140;2022-10-01T00:57:25;983.46;;;16.83;47.69
45071;BME280;30836;48.906;9.140;2022-10-01T00:58:26;983.46;;;16.80;47.70
45071;BME280;30836;48.906;9.140;2022-10-01T00:59:26;983.46;;;16.80;47.73
45071;BME280;30836;48.906;9.140;2022-10-01T01:00:29;983.42;;;16.82;47.66
45071;BME280;30836;48.906;9.140;2022-10-01T01:01:33;983.42;;;16.89;47.39
45071;BME280;30836;48.906;9.140;2022-10-01T01:02:36;983.36;;;16.96;47.26
45071;BME280;30836;48.906;9.140;2022-10-01T01:03:36;983.34;;;16.98;47.32
45071;BME280;30836;48.906;9.140;2022-10-01T01:04:38;983.32;;;16.98;47.37
45071;BME280;30836;48.906;9.140;2022-10-01T01:05:39;983.30;;;16.97;47.38
45071;BME280;30836;48.906;9.140;2022-10-01T01:07:48;983.26;;;16.90;47.51
45071;BME280;30836;48.906;9.140;2022-10-01T01:08:51;983.28;;;16.89;47.56
45071;BME280;30836;48.906;9.140;2022-10-01T01:09:51;983.28;;;16.95;47.40
45071;BME280;30836;48.906;9.140;2022-10-01T01:10:02;983.30;;;17.04;47.32
45071;BME280;30836;48.906;9.140;2022-10-01T01:16:58;983.24;;;16.87;47.99
45071;BME280;30836;48.906;9.140;2022-10-01T01:18:04;983.22;;;16.84;48.13
45071;BME280;30836;48.906;9.140;2022-10-01T01:19:19;983.22;;;16.81;48.19
45071;BME280;30836;48.906;9.140;2022-10-01T01:21:07;983.18;;;16.77;48.56
45071;BME280;30836;48.906;9.140;2022-10-01T01:21:39;983.18;;;16.73;48.58
45071;BME280;30836;48.906;9.140;2022-10-01T01:22:49;983.14;;;16.71;48.65
45071;BME280;30836;48.906;9.140;2022-10-01T01:25:29;983.14;;;16.74;48.66
45071;BME280;30836;48.906;9.140;2022-10-01T01:27:26;983.10;;;16.67;49.49
45071;BME280;30836;48.906;9.140;2022-10-01T01:28:33;983.12;;;16.56;49.50
45071;BME280;30836;48.906;9.140;2022-10-01T01:29:42;983.08;;;16.49;49.94
45071;BME280;30836;48.906;9.140;2022-10-01T01:30:51;983.06;;;16.48;49.67
45071;BME280;30836;48.906;9.140;2022-10-01T01:31:56;983.03;;;16.56;49.32
45071;BME280;30836;48.906;9.140;2022-10-01T01:33:04;983.03;;;16.67;49.15
45071;BME280;30836;48.906;9.140;2022-10-01T01:34:09;983.01;;;16.77;49.03
45071;BME280;30836;48.906;9.140;2022-10-01T01:36:24;982.99;;;16.89;48.83
45071;BME280;30836;48.906;9.140;2022-10-01T01:37:31;982.95;;;16.92;48.79
45071;BME280;30836;48.906;9.140;2022-10-01T01:38:37;982.95;;;16.93;48.88
45071;BME280;30836;48.906;9.140;2022-10-01T01:39:43;982.91;;;16.91;48.97
45071;BME280;30836;48.906;9.140;2022-10-01T01:40:47;982.89;;;16.94;48.79
45071;BME280;30836;48.906;9.140;2022-10-01T01:41:52;982.87;;;16.98;48.69
45071;BME280;30836;48.906;9.140;2022-10-01T01:42:56;982.83;;;16.95;49.04
45071;BME280;30836;48.906;9.140;2022-10-01T01:44:00;982.83;;;16.88;49.05
45071;BME280;30836;48.906;9.140;2022-10-01T01:45:05;982.83;;;16.85;49.01
45071;BME280;30836;48.906;9.140;2022-10-01T01:46:08;982.81;;;16.86;48.95
45071;BME280;30836;48.906;9.140;2022-10-01T01:47:11;982.83;;;16.89;48.95
45071;BME280;30836;48.906;9.140;2022-10-01T01:48:12;982.77;;;16.96;48.51
45071;BME280;30836;48.906;9.140;2022-10-01T01:49:14;982.79;;;17.04;48.51
45071;BME280;30836;48.906;9.140;2022-10-01T01:50:17;982.77;;;17.07;48.50
45071;BME280;30836;48.906;9.140;2022-10-01T01:52:26;982.77;;;17.16;48.10
45071;BME280;30836;48.906;9.140;2022-10-01T01:53:27;982.75;;;17.19;48.36
45071;BME280;30836;48.906;9.140;2022-10-01T01:54:28;982.73;;;17.17;48.24
45071;BME280;30836;48.906;9.140;2022-10-01T01:55:29;982.73;;;17.22;48.01
45071;BME280;30836;48.906;9.140;2022-10-01T01:56:31;982.69;;;17.24;48.04
45071;BME280;30836;48.906;9.140;2022-10-01T01:57:31;982.69;;;17.22;48.05
45071;BME280;30836;48.906;9.140;2022-10-01T01:58:33;982.71;;;17.23;47.95
45071;BME280;30836;48.906;9.140;2022-10-01T01:59:35;982.75;;;17.28;47.56
45071;BME280;30836;48.906;9.140;2022-10-01T01:59:45;982.73;;;17.38;47.61
45071;BME280;30836;48.906;9.140;2022-10-01T02:00:49;982.73;;;17.38;47.66
45071;BME280;30836;48.906;9.140;2022-10-01T02:01:50;982.69;;;17.30;48.12
45071;BME280;30836;48.906;9.140;2022-10-01T02:02:51;982.69;;;17.15;48.24
45071;BME280;30836;48.906;9.140;2022-10-01T02:03:54;982.69;;;17.03;48.57
45071;BME280;30836;48.906;9.140;2022-10-01T02:04:59;982.65;;;16.89;48.73
45071;BME280;30836;48.906;9.140;2022-10-01T02:11:53;982.57;;;16.37;49.81
45071;BME280;30836;48.906;9.140;2022-10-01T02:15:27;982.57;;;16.53;49.36
45071;BME280;30836;48.906;9.140;2022-10-01T02:21:12;982.57;;;17.02;47.99
45071;BME280;30836;48.906;9.140;2022-10-01T02:22:21;982.53;;;17.07;47.70
45071;BME280;30836;48.906;9.140;2022-10-01T02:23:29;982.53;;;17.13;47.58
45071;BME280;30836;48.906;9.140;2022-10-01T02:25:47;982.55;;;17.15;47.61
45071;BME280;30836;48.906;9.140;2022-10-01T02:26:50;982.55;;;17.14;47.53
45071;BME280;30836;48.906;9.140;2022-10-01T02:27:55;982.55;;;17.13;47.44
45071;BME280;30836;48.906;9.140;2022-10-01T02:29:02;982.57;;;17.07;47.94
45071;BME280;30836;48.906;9.140;2022-10-01T02:30:06;982.57;;;16.98;47.86
45071;BME280;30836;48.906;9.140;2022-10-01T02:31:09;982.57;;;16.95;48.04
45071;BME280;30836;48.906;9.140;2022-10-01T02:32:12;982.55;;;16.94;47.63
45071;BME280;30836;48.906;9.140;2022-10-01T02:33:14;982.53;;;16.99;47.62
45071;BME280;30836;48.906;9.140;2022-10-01T02:34:21;982.51;;;17.08;47.24
45071;BME280;30836;48.906;9.140;2022-10-01T02:35:27;982.51;;;17.21;46.99
45071;BME280;30836;48.906;9.140;2022-10-01T02:36:30;982.51;;;17.30;46.76
45071;BME280;30836;48.906;9.140;2022-10-01T02:37:33;982.48;;;17.32;46.87
45071;BME280;30836;48.906;9.140;2022-10-01T02:38:37;982.48;;;17.29;47.00
45071;BME280;30836;48.906;9.140;2022-10-01T02:39:41;982.46;;;17.28;46.90
45071;BME280;30836;48.906;9.140;2022-10-01T02:40:43;982.44;;;17.32;46.65
45071;BME280;30836;48.906;9.140;2022-10-01T02:41:45;982.46;;;17.37;46.60
45071;BME280;30836;48.906;9.140;2022-10-01T02:42:49;982.46;;;17.37;46.69
45071;BME280;30836;48.906;9.140;2022-10-01T02:45:02;982.44;;;17.18;47.25
45071;BME280;30836;48.906;9.140;2022-10-01T02:46:14;982.42;;;17.14;47.19
45071;BME280;30836;48.906;9.140;2022-10-01T02:48:23;982.42;;;17.08;47.27
45071;BME280;30836;48.906;9.140;2022-10-01T02:49:24;982.40;;;17.09;47.34
45071;BME280;30836;48.906;9.140;2022-10-01T02:50:27;982.38;;;17.13;47.06
45071;BME280;30836;48.906;9.140;2022-10-01T02:51:39;982.40;;;17.21;46.77
45071;BME280;30836;48.906;9.140;2022-10-01T02:52:51;982.40;;;17.25;46.86
45071;BME280;30836;48.906;9.140;2022-10-01T02:54:02;982.38;;;17.28;46.74
45071;BME280;30836;48.906;9.140;2022-10-01T02:55:11;982.38;;;17.36;46.38
45071;BME280;30836;48.906;9.140;2022-10-01T02:56:18;982.38;;;17.46;46.18
45071;BME280;30836;48.906;9.140;2022-10-01T02:57:18;982.40;;;17.47;46.39
45071;BME280;30836;48.906;9.140;2022-10-01T02:58:19;982.42;;;17.39;46.35
45071;BME280;30836;48.906;9.140;2022-10-01T02:59:20;982.38;;;17.36;46.47
45071;BME280;30836;48.906;9.140;2022-10-01T03:00:21;982.40;;;17.39;46.32
45071;BME280;30836;48.906;9.140;2022-10-01T03:01:22;982.40;;;17.43;46.24
45071;BME280;30836;48.906;9.140;2022-10-01T03:02:23;982.48;;;17.45;46.10
45071;BME280;30836;48.906;9.140;2022-10-01T03:03:25;982.44;;;17.49;46.08
45071;BME280;30836;48.906;9.140;2022-10-01T03:04:25;982.44;;;17.51;45.93
45071;BME280;30836;48.906;9.140;2022-10-01T03:05:26;982.42;;;17.51;45.97
45071;BME280;30836;48.906;9.140;2022-10-01T03:06:26;982.40;;;17.54;45.71
45071;BME280;30836;48.906;9.140;2022-10-01T03:07:28;982.40;;;17.55;45.84
45071;BME280;30836;48.906;9.140;2022-10-01T03:08:29;982.40;;;17.53;45.81
45071;BME280;30836;48.906;9.140;2022-10-01T03:09:30;982.40;;;17.56;45.63
45071;BME280;30836;48.906;9.140;2022-10-01T03:10:31;982.38;;;17.63;45.38
45071;BME280;30836;48.906;9.140;2022-10-01T03:11:32;982.38;;;17.71;45.24
45071;BME280;30836;48.906;9.140;2022-10-01T03:12:33;982.38;;;17.77;45.03
45071;BME280;30836;48.906;9.140;2022-10-01T03:13:34;982.36;;;17.76;45.16
45071;BME280;30836;48.906;9.140;2022-10-01T03:14:34;982.36;;;17.68;45.44
45071;BME280;30836;48.906;9.140;2022-10-01T03:15:34;982.36;;;17.65;45.26
45071;BME280;30836;48.906;9.140;2022-10-01T03:16:35;982.34;;;17.63;45.42
45071;BME280;30836;48.906;9.140;2022-10-01T03:17:36;982.30;;;17.56;45.67
45071;BME280;30836;48.906;9.140;2022-10-01T03:18:36;982.24;;;17.48;45.87
45071;BME280;30836;48.906;9.140;2022-10-01T03:19:37;982.24;;;17.39;46.08
45071;BME280;30836;48.906;9.140;2022-10-01T03:20:37;982.24;;;17.29;46.45
45071;BME280;30836;48.906;9.140;2022-10-01T03:21:38;982.24;;;17.17;46.53
45071;BME280;30836;48.906;9.140;2022-10-01T03:22:38;982.26;;;17.09;46.66
45071;BME280;30836;48.906;9.140;2022-10-01T03:23:39;982.26;;;17.03;46.79
45071;BME280;30836;48.906;9.140;2022-10-01T03:24:39;982.26;;;16.98;46.80
45071;BME280;30836;48.906;9.140;2022-10-01T03:25:39;982.24;;;16.96;46.76
45071;BME280;30836;48.906;9.140;2022-10-01T03:26:40;982.22;;;16.96;46.82
45071;BME280;30836;48.906;9.140;2022-10-01T03:27:40;982.22;;;16.97;46.68
45071;BME280;30836;48.906;9.140;2022-10-01T03:28:41;982.20;;;16.93;46.88
45071;BME280;30836;48.906;9.140;2022-10-01T03:29:42;982.20;;;16.81;47.40
45071;BME280;30836;48.906;9.140;2022-10-01T03:30:43;982.20;;;16.74;47.30
45071;BME280;30836;48.906;9.140;2022-10-01T03:31:43;982.22;;;16.72;47.19
45071;BME280;30836;48.906;9.140;2022-10-01T03:32:44;982.20;;;16.65;47.48
45071;BME280;30836;48.906;9.140;2022-10-01T03:33:44;982.18;;;16.61;47.43
45071;BME280;30836;48.906;9.140;2022-10-01T03:34:44;982.20;;;16.65;47.23
45071;BME280;30836;48.906;9.140;2022-10-01T03:35:45;982.22;;;16.68;47.20
45071;BME280;30836;48.906;9.140;2022-10-01T03:36:46;982.20;;;16.66;47.28
45071;BME280;30836;48.906;9.140;2022-10-01T03:37:46;982.24;;;16.62;47.30
45071;BME280;30836;48.906;9.140;2022-10-01T03:38:46;982.22;;;16.62;47.24
45071;BME280;30836;48.906;9.140;2022-10-01T03:39:47;982.24;;;16.65;47.08
45071;BME280;30836;48.906;9.140;2022-10-01T03:40:47;982.22;;;16.69;46.96
45071;BME280;30836;48.906;9.140;2022-10-01T03:41:48;982.16;;;16.74;46.78
45071;BME280;30836;48.906;9.140;2022-10-01T03:42:48;982.18;;;16.78;46.75
45071;BME280;30836;48.906;9.140;2022-10-01T03:43:49;982.12;;;16.78;46.85
45071;BME280;30836;48.906;9.140;2022-10-01T03:44:49;982.04;;;16.70;47.08
45071;BME280;30836;48.906;9.140;2022-10-01T03:45:49;982.02;;;16.66;46.99
45071;BME280;30836;48.906;9.140;2022-10-01T03:46:50;982.02;;;16.66;46.98
45071;BME280;30836;48.906;9.140;2022-10-01T03:47:51;982.04;;;16.64;46.98
45071;BME280;30836;48.906;9.140;2022-10-01T03:48:52;982.00;;;16.61;47.28
45071;BME280;30836;48.906;9.140;2022-10-01T03:49:54;981.96;;;16.63;46.73
45071;BME280;30836;48.906;9.140;2022-10-01T03:50:55;981.98;;;16.74;46.53
45071;BME280;30836;48.906;9.140;2022-10-01T03:51:57;981.98;;;16.85;46.22
45071;BME280;30836;48.906;9.140;2022-10-01T03:52:58;981.98;;;16.94;46.29
45071;BME280;30836;48.906;9.140;2022-10-01T03:53:58;981.96;;;17.00;46.01
45071;BME280;30836;48.906;9.140;2022-10-01T03:54:58;981.96;;;17.12;45.81
45071;BME280;30836;48.906;9.140;2022-10-01T03:55:59;981.92;;;17.21;45.57
45071;BME280;30836;48.906;9.140;2022-10-01T03:57:00;981.90;;;17.21;45.81
45071;BME280;30836;48.906;9.140;2022-10-01T03:58:00;981.88;;;17.22;45.72
45071;BME280;30836;48.906;9.140;2022-10-01T03:59:00;981.90;;;17.22;45.84
45071;BME280;30836;48.906;9.140;2022-10-01T04:00:01;981.90;;;17.22;45.72
45071;BME280;30836;48.906;9.140;2022-10-01T04:01:02;981.90;;;17.30;45.43
45071;BME280;30836;48.906;9.140;2022-10-01T04:02:02;981.90;;;17.38;45.17
45071;BME280;30836;48.906;9.140;2022-10-01T04:03:03;981.92;;;17.42;45.42
45071;BME280;30836;48.906;9.140;2022-10-01T04:04:04;981.90;;;17.43;45.20
45071;BME280;30836;48.906;9.140;2022-10-01T04:05:05;981.88;;;17.52;44.90
45071;BME280;30836;48.906;9.140;2022-10-01T04:06:05;981.82;;;17.64;44.70
45071;BME280;30836;48.906;9.140;2022-10-01T04:07:06;981.86;;;17.72;44.55
45071;BME280;30836;48.906;9.140;2022-10-01T04:08:07;981.84;;;17.73;44.77
45071;BME280;30836;48.906;9.140;2022-10-01T04:09:07;981.84;;;17.71;44.84
45071;BME280;30836;48.906;9.140;2022-10-01T04:10:08;981.81;;;17.67;44.97
45071;BME280;30836;48.906;9.140;2022-10-01T04:11:09;981.81;;;17.68;44.74
45071;BME280;30836;48.906;9.140;2022-10-01T04:12:09;981.79;;;17.66;45.09
45071;BME280;30836;48.906;9.140;2022-10-01T04:13:10;981.73;;;17.52;45.64
45071;BME280;30836;48.906;9.140;2022-10-01T04:14:10;981.69;;;17.30;46.20
45071;BME280;30836;48.906;9.140;2022-10-01T04:15:11;981.69;;;17.08;46.56
45071;BME280;30836;48.906;9.140;2022-10-01T04:16:11;981.73;;;16.91;46.70
45071;BME280;30836;48.906;9.140;2022-10-01T04:17:12;981.71;;;16.78;47.10
45071;BME280;30836;48.906;9.140;2022-10-01T04:18:12;981.71;;;16.63;47.47
45071;BME280;30836;48.906;9.140;2022-10-01T04:19:13;981.75;;;16.54;47.31
45071;BME280;30836;48.906;9.140;2022-10-01T04:20:13;981.75;;;16.54;47.31
45071;BME280;30836;48.906;9.140;2022-10-01T04:21:14;981.77;;;16.56;47.10
45071;BME280;30836;48.906;9.140;2022-10-01T04:22:14;981.75;;;16.55;47.44
45071;BME280;30836;48.906;9.140;2022-10-01T04:23:15;981.73;;;16.47;47.45
45071;BME280;30836;48.906;9.140;2022-10-01T04:24:15;981.71;;;16.48;47.31
45071;BME280;30836;48.906;9.140;2022-10-01T04:25:15;981.75;;;16.50;47.20
45071;BME280;30836;48.906;9.140;2022-10-01T04:26:16;981.77;;;16.51;47.29
45071;BME280;30836;48.906;9.140;2022-10-01T04:27:16;981.73;;;16.53;47.23
45071;BME280;30836;48.906;9.140;2022-10-01T04:28:17;981.75;;;16.58;47.07
45071;BME280;30836;48.906;9.140;2022-10-01T04:29:18;981.73;;;16.63;47.04
45071;BME280;30836;48.906;9.140;2022-10-01T04:30:18;981.75;;;16.64;46.98
45071;BME280;30836;48.906;9.140;2022-10-01T04:31:18;981.71;;;16.60;47.14
45071;BME280;30836;48.906;9.140;2022-10-01T04:32:19;981.69;;;16.51;47.39
45071;BME280;30836;48.906;9.140;2022-10-01T04:33:19;981.67;;;16.46;47.47
45071;BME280;30836;48.906;9.140;2022-10-01T04:34:20;981.63;;;16.47;47.34
45071;BME280;30836;48.906;9.140;2022-10-01T04:35:20;981.61;;;16.46;47.48
45071;BME280;30836;48.906;9.140;2022-10-01T04:36:21;981.61;;;16.46;47.24
45071;BME280;30836;48.906;9.140;2022-10-01T04:37:23;981.59;;;16.53;47.25
45071;BME280;30836;48.906;9.140;2022-10-01T04:38:23;981.59;;;16.58;47.11
45071;BME280;30836;48.906;9.140;2022-10-01T04:39:24;981.63;;;16.64;47.03
45071;BME280;30836;48.906;9.140;2022-10-01T04:40:24;981.61;;;16.67;47.01
45071;BME280;30836;48.906;9.140;2022-10-01T04:41:25;981.61;;;16.71;46.93
45071;BME280;30836;48.906;9.140;2022-10-01T04:42:25;981.61;;;16.74;46.97
45071;BME280;30836;48.906;9.140;2022-10-01T04:43:26;981.63;;;16.78;46.81
45071;BME280;30836;48.906;9.140;2022-10-01T04:44:26;981.65;;;16.80;46.85
45071;BME280;30836;48.906;9.140;2022-10-01T04:45:27;981.65;;;16.76;47.11
45071;BME280;30836;48.906;9.140;2022-10-01T04:46:27;981.65;;;16.68;47.16
45071;BME280;30836;48.906;9.140;2022-10-01T04:47:28;981.65;;;16.61;47.48
45071;BME280;30836;48.906;9.140;2022-10-01T04:48:29;981.63;;;16.57;47.31
45071;BME280;30836;48.906;9.140;2022-10-01T04:49:29;981.65;;;16.55;47.62
45071;BME280;30836;48.906;9.140;2022-10-01T04:50:30;981.57;;;16.50;47.63
45071;BME280;30836;48.906;9.140;2022-10-01T04:51:31;981.57;;;16.53;47.27
45071;BME280;30836;48.906;9.140;2022-10-01T04:52:31;981.57;;;16.63;47.03
45071;BME280;30836;48.906;9.140;2022-10-01T04:53:32;981.59;;;16.69;46.95
45071;BME280;30836;48.906;9.140;2022-10-01T04:54:32;981.65;;;16.68;47.18
45071;BME280;30836;48.906;9.140;2022-10-01T04:55:32;981.65;;;16.60;47.64
45071;BME280;30836;48.906;9.140;2022-10-01T04:56:33;981.55;;;16.44;47.82
45071;BME280;30836;48.906;9.140;2022-10-01T04:57:36;981.57;;;16.38;47.67
45071;BME280;30836;48.906;9.140;2022-10-01T04:58:37;981.59;;;16.48;47.13
45071;BME280;30836;48.906;9.140;2022-10-01T04:59:37;981.57;;;16.56;47.04
45071;BME280;30836;48.906;9.140;2022-10-01T05:00:38;981.63;;;16.57;47.15
45071;BME280;30836;48.906;9.140;2022-10-01T05:01:38;981.61;;;16.62;47.01
45071;BME280;30836;48.906;9.140;2022-10-01T05:02:39;981.59;;;16.69;46.66
45071;BME280;30836;48.906;9.140;2022-10-01T05:03:42;981.57;;;16.78;46.46
45071;BME280;30836;48.906;9.140;2022-10-01T05:04:42;981.55;;;16.86;46.29
45071;BME280;30836;48.906;9.140;2022-10-01T05:05:43;981.55;;;16.89;46.31
45071;BME280;30836;48.906;9.140;2022-10-01T05:06:43;981.57;;;16.89;46.44
45071;BME280;30836;48.906;9.140;2022-10-01T05:07:44;981.57;;;16.82;46.91
45071;BME280;30836;48.906;9.140;2022-10-01T05:08:45;981.57;;;16.71;46.82
45071;BME280;30836;48.906;9.140;2022-10-01T05:09:45;981.55;;;16.63;47.16
45071;BME280;30836;48.906;9.140;2022-10-01T05:10:45;981.55;;;16.54;47.16
45071;BME280;30836;48.906;9.140;2022-10-01T05:11:46;981.53;;;16.51;47.28
45071;BME280;30836;48.906;9.140;2022-10-01T05:12:46;981.53;;;16.44;47.38
45071;BME280;30836;48.906;9.140;2022-10-01T05:13:48;981.53;;;16.38;47.36
45071;BME280;30836;48.906;9.140;2022-10-01T05:14:48;981.51;;;16.44;47.09
45071;BME280;30836;48.906;9.140;2022-10-01T05:15:48;981.57;;;16.54;46.83
45071;BME280;30836;48.906;9.140;2022-10-01T05:16:49;981.55;;;16.62;46.83
45071;BME280;30836;48.906;9.140;2022-10-01T05:17:49;981.55;;;16.62;46.91
45071;BME280;30836;48.906;9.140;2022-10-01T05:18:50;981.53;;;16.54;47.15
45071;BME280;30836;48.906;9.140;2022-10-01T05:19:50;981.55;;;16.45;47.32
45071;BME280;30836;48.906;9.140;2022-10-01T05:20:51;981.55;;;16.39;47.43
45071;BME280;30836;48.906;9.140;2022-10-01T05:21:51;981.55;;;16.40;47.32
45071;BME280;30836;48.906;9.140;2022-10-01T05:22:51;981.57;;;16.48;47.02
45071;BME280;30836;48.906;9.140;2022-10-01T05:23:52;981.57;;;16.57;46.79
45071;BME280;30836;48.906;9.140;2022-10-01T05:24:53;981.57;;;16.63;46.80
45071;BME280;30836;48.906;9.140;2022-10-01T05:25:53;981.55;;;16.67;46.59
45071;BME280;30836;48.906;9.140;2022-10-01T05:26:54;981.51;;;16.69;46.66
45071;BME280;30836;48.906;9.140;2022-10-01T05:27:58;981.51;;;16.63;46.98
45071;BME280;30836;48.906;9.140;2022-10-01T05:28:59;981.51;;;16.54;47.09
45071;BME280;30836;48.906;9.140;2022-10-01T05:29:59;981.47;;;16.48;47.30
45071;BME280;30836;48.906;9.140;2022-10-01T05:31:00;981.47;;;16.40;47.53
45071;BME280;30836;48.906;9.140;2022-10-01T05:32:02;981.49;;;16.39;47.37
45071;BME280;30836;48.906;9.140;2022-10-01T05:33:03;981.47;;;16.46;47.15
45071;BME280;30836;48.906;9.140;2022-10-01T05:34:04;981.51;;;16.53;46.90
45071;BME280;30836;48.906;9.140;2022-10-01T05:35:04;981.51;;;16.60;46.82
45071;BME280;30836;48.906;9.140;2022-10-01T05:36:06;981.55;;;16.67;46.69
45071;BME280;30836;48.906;9.140;2022-10-01T05:37:06;981.57;;;16.69;46.80
45071;BME280;30836;48.906;9.140;2022-10-01T05:38:08;981.59;;;16.64;46.94
45071;BME280;30836;48.906;9.140;2022-10-01T05:39:08;981.57;;;16.66;46.79
45071;BME280;30836;48.906;9.140;2022-10-01T05:40:09;981.55;;;16.70;46.60
45071;BME280;30836;48.906;9.140;2022-10-01T05:41:09;981.55;;;16.76;46.52
45071;BME280;30836;48.906;9.140;2022-10-01T05:42:10;981.53;;;16.82;46.39
45071;BME280;30836;48.906;9.140;2022-10-01T05:43:10;981.49;;;16.86;46.43
45071;BME280;30836;48.906;9.140;2022-10-01T05:44:11;981.47;;;16.87;46.46
45071;BME280;30836;48.906;9.140;2022-10-01T05:45:11;981.49;;;16.88;46.38
45071;BME280;30836;48.906;9.140;2022-10-01T05:46:12;981.47;;;16.94;46.23
45071;BME280;30836;48.906;9.140;2022-10-01T05:47:12;981.47;;;16.98;46.09
45071;BME280;30836;48.906;9.140;2022-10-01T05:48:13;981.51;;;17.02;46.07
45071;BME280;30836;48.906;9.140;2022-10-01T05:49:13;981.49;;;17.08;46.02
45071;BME280;30836;48.906;9.140;2022-10-01T05:50:15;981.43;;;17.13;45.89
45071;BME280;30836;48.906;9.140;2022-10-01T05:51:15;981.41;;;17.16;45.97
45071;BME280;30836;48.906;9.140;2022-10-01T05:52:16;981.39;;;17.16;46.13
45071;BME280;30836;48.906;9.140;2022-10-01T05:53:17;981.37;;;17.13;46.14
45071;BME280;30836;48.906;9.140;2022-10-01T05:54:17;981.35;;;17.06;46.24
45071;BME280;30836;48.906;9.140;2022-10-01T05:55:18;981.35;;;17.00;46.23
45071;BME280;30836;48.906;9.140;2022-10-01T05:56:19;981.35;;;16.98;46.43
45071;BME280;30836;48.906;9.140;2022-10-01T05:57:19;981.33;;;16.96;46.48
45071;BME280;30836;48.906;9.140;2022-10-01T05:58:20;981.31;;;16.99;46.26
45071;BME280;30836;48.906;9.140;2022-10-01T05:59:20;981.31;;;17.09;46.03
45071;BME280;30836;48.906;9.140;2022-10-01T06:00:21;981.35;;;17.18;45.96
45071;BME280;30836;48.906;9.140;2022-10-01T06:01:21;981.31;;;17.16;46.38
45071;BME280;30836;48.906;9.140;2022-10-01T06:02:22;981.30;;;17.08;46.47
45071;BME280;30836;48.906;9.140;2022-10-01T06:03:22;981.28;;;17.03;46.28
45071;BME280;30836;48.906;9.140;2022-10-01T06:04:22;981.26;;;17.00;46.45
45071;BME280;30836;48.906;9.140;2022-10-01T06:05:23;981.24;;;17.00;46.60
45071;BME280;30836;48.906;9.140;2022-10-01T06:06:24;981.20;;;16.99;46.62